MFA weather

Mafia Island Airport
Mafia Island, Pwani Region, Tanzania

Public forecast

Using degrees Celsius for public forecast. Weather courtesy of forecast.io.

Closest aviation weather report (METAR) to Mafia Island Airport

Report is more than 6 hours old.

Closest report is Kilwa Masoko Airport, 60.4 nm (111.9 km) S. Retrieved 2020/02/18 05:00 UTC (4 days ago):

HTKI 180500Z 35006KT 999 SCT020 SCT080 29/26 Q//// RESH

Closest aviation forecast (TAF) to Mafia Island Airport

Closest forecast is Julius Nyerere International Airport, 68.3 nm (126.5 km) NNW. Retrieved 2020/02/22 06:00 UTC (1 hour ago):

TAF HTDA 220500Z 2206/2312 35010KT 9999 BKN025 BECMG 2211/2214 03010KT SCT022